Time;durP1;ratioP1;P1;durP2;ratioP2;P2;SDS_P1;SDS_P2;PMS_P1;PMS_P2;Temp;Humidity;BMP_temperature;BMP_pressure;BME280_temperature;BME280_humidity;BME280_pressure;Samples;Min_cycle;Max_cycle;Signal;HPM_P1;HPM_P2
2021/05/07 00:01:04;;;;;;;7.82;5.32;;;4.00;97.10;;;;;;5149507;27;20554;-43
2021/05/07 00:03:33;;;;;;;7.05;5.60;;;4.00;96.90;;;;;;5149187;27;20039;-45
2021/05/07 00:06:03;;;;;;;7.57;5.85;;;4.00;96.80;;;;;;5149589;27;20042;-42
2021/05/07 00:08:34;;;;;;;7.15;5.57;;;4.00;96.70;;;;;;5149704;27;20082;-41
2021/05/07 00:11:14;;;;;;;5.93;5.05;;;4.00;96.70;;;;;;5149796;27;20050;-40
2021/05/07 00:13:49;;;;;;;6.28;5.22;;;4.00;96.70;;;;;;5149553;27;20043;-41
2021/05/07 00:16:15;;;;;;;6.28;5.10;;;4.00;96.70;;;;;;5148255;27;20497;-44
2021/05/07 00:18:44;;;;;;;8.35;5.50;;;3.90;96.70;;;;;;5148669;27;20435;-41
2021/05/07 00:21:10;;;;;;;7.80;5.60;;;3.90;96.60;;;;;;5149180;27;20569;-43
2021/05/07 00:23:42;;;;;;;8.27;5.63;;;3.80;96.70;;;;;;5148810;27;20688;-41
2021/05/07 00:26:13;;;;;;;6.63;5.25;;;3.90;97.00;;;;;;5130175;27;20473;-42
2021/05/07 00:28:41;;;;;;;6.18;5.45;;;4.00;97.10;;;;;;5147664;27;20038;-40
2021/05/07 00:31:10;;;;;;;7.32;5.68;;;4.00;97.10;;;;;;5148965;27;20043;-40
2021/05/07 00:33:42;;;;;;;6.43;5.30;;;4.00;97.00;;;;;;5148172;27;20130;-40
2021/05/07 00:36:11;;;;;;;5.78;5.18;;;4.10;97.00;;;;;;5148441;27;20046;-40
2021/05/07 00:38:41;;;;;;;6.60;5.18;;;4.00;96.80;;;;;;5148537;27;20767;-41
2021/05/07 00:41:09;;;;;;;8.80;5.05;;;4.10;96.90;;;;;;5137410;27;20175;-40
2021/05/07 00:43:40;;;;;;;6.28;4.97;;;4.00;97.00;;;;;;5148417;27;20138;-40
2021/05/07 00:46:10;;;;;;;7.55;5.35;;;4.00;97.10;;;;;;5142470;27;20490;-40
2021/05/07 00:48:37;;;;;;;6.90;5.22;;;4.00;97.10;;;;;;5130012;27;20057;-40
2021/05/07 00:51:08;;;;;;;6.75;4.90;;;4.00;97.10;;;;;;5154491;27;20043;-40
2021/05/07 00:53:40;;;;;;;8.07;5.80;;;4.10;97.20;;;;;;5149049;27;20054;-40
2021/05/07 00:56:07;;;;;;;7.00;5.45;;;4.10;97.20;;;;;;5129870;27;20506;-40
2021/05/07 00:58:37;;;;;;;8.85;5.00;;;4.10;97.30;;;;;;5151093;27;20056;-40
2021/05/07 01:01:11;;;;;;;7.95;5.13;;;4.20;97.20;;;;;;5131143;27;20051;-40
2021/05/07 01:03:40;;;;;;;6.85;5.28;;;4.10;97.00;;;;;;5139500;27;20169;-40
2021/05/07 01:06:09;;;;;;;7.25;5.10;;;4.10;96.90;;;;;;5148972;27;20202;-41
2021/05/07 01:08:40;;;;;;;6.30;4.72;;;3.90;96.80;;;;;;5147216;27;20053;-41
2021/05/07 01:11:10;;;;;;;5.78;4.70;;;3.80;96.80;;;;;;5147114;27;20046;-40
2021/05/07 01:13:39;;;;;;;7.15;5.05;;;3.70;97.00;;;;;;5146474;27;20806;-41
2021/05/07 01:16:14;;;;;;;5.63;4.90;;;3.70;97.10;;;;;;5146161;27;20058;-40
2021/05/07 01:18:42;;;;;;;5.60;4.43;;;3.60;97.20;;;;;;5147791;27;20055;-40
2021/05/07 01:21:08;;;;;;;6.28;5.30;;;3.50;97.20;;;;;;5147758;27;20553;-41
2021/05/07 01:23:38;;;;;;;5.95;4.75;;;3.50;97.20;;;;;;5146858;27;20046;-40
2021/05/07 01:26:04;;;;;;;9.55;5.60;;;3.30;97.00;;;;;;5148568;27;20043;-41
2021/05/07 01:28:36;;;;;;;7.65;5.68;;;3.40;97.30;;;;;;5145140;27;20043;-40
2021/05/07 01:31:06;;;;;;;6.55;5.28;;;3.30;97.40;;;;;;5132376;27;20059;-41
2021/05/07 01:33:37;;;;;;;7.53;5.53;;;3.30;97.50;;;;;;5124317;27;20498;-41
2021/05/07 01:36:05;;;;;;;7.20;5.90;;;3.20;97.60;;;;;;5152800;27;20110;-40
2021/05/07 01:38:34;;;;;;;7.60;5.97;;;3.10;97.80;;;;;;5133713;27;20057;-41
2021/05/07 01:41:04;;;;;;;9.70;6.28;;;3.10;98.10;;;;;;5152284;27;20078;-40
2021/05/07 01:43:39;;;;;;;7.18;6.40;;;3.00;98.20;;;;;;5136789;27;20093;-40
2021/05/07 01:46:11;;;;;;;7.88;6.28;;;3.00;98.40;;;;;;5151517;27;20130;-41
2021/05/07 01:48:41;;;;;;;9.70;6.10;;;3.00;98.40;;;;;;5137486;27;20054;-41
2021/05/07 01:51:10;;;;;;;11.55;6.15;;;3.00;98.30;;;;;;5134905;27;20091;-41
2021/05/07 01:53:46;;;;;;;8.88;5.40;;;3.00;98.30;;;;;;5138794;27;20213;-41
2021/05/07 01:56:15;;;;;;;7.03;6.07;;;2.90;98.20;;;;;;5158961;27;20054;-41
2021/05/07 01:58:51;;;;;;;8.73;5.78;;;2.90;98.20;;;;;;5138825;27;20535;-41
2021/05/07 02:01:22;;;;;;;7.03;5.67;;;2.90;98.30;;;;;;5151864;27;20122;-41
2021/05/07 02:03:56;;;;;;;7.90;5.85;;;2.80;98.30;;;;;;5139063;27;20046;-41
2021/05/07 02:06:39;;;;;;;6.63;5.22;;;2.80;98.30;;;;;;5154167;27;20125;-42
2021/05/07 02:09:08;;;;;;;7.72;6.28;;;2.80;98.30;;;;;;5142348;27;20057;-41
2021/05/07 02:11:36;;;;;;;7.82;6.00;;;2.70;98.30;;;;;;5151165;27;20054;-43
2021/05/07 02:14:11;;;;;;;10.25;6.03;;;2.70;98.40;;;;;;5151069;27;21691;-42
2021/05/07 02:16:38;;;;;;;8.23;6.83;;;2.60;98.50;;;;;;5152043;27;20043;-40
2021/05/07 02:19:08;;;;;;;7.95;6.30;;;2.60;98.60;;;;;;5150337;27;20802;-41
2021/05/07 02:21:35;;;;;;;8.82;5.97;;;2.60;98.60;;;;;;5151442;27;20497;-40
2021/05/07 02:24:01;;;;;;;6.95;5.78;;;2.60;98.60;;;;;;5142208;27;20142;-40
2021/05/07 02:26:36;;;;;;;8.48;6.35;;;2.50;98.60;;;;;;5150951;27;20047;-41
2021/05/07 02:29:09;;;;;;;9.18;6.70;;;2.50;98.70;;;;;;5148160;27;20050;-40
2021/05/07 02:31:38;;;;;;;7.97;5.78;;;2.50;98.80;;;;;;5133066;27;20047;-41
2021/05/07 02:34:05;;;;;;;7.93;6.22;;;2.50;98.70;;;;;;5151503;27;20047;-40
2021/05/07 02:36:34;;;;;;;6.97;6.05;;;2.50;98.80;;;;;;5142577;27;20517;-41
2021/05/07 02:39:05;;;;;;;7.32;6.40;;;2.50;98.90;;;;;;5150906;27;20070;-41
2021/05/07 02:41:36;;;;;;;7.70;6.72;;;2.50;99.10;;;;;;5150662;27;20043;-42
2021/05/07 02:44:04;;;;;;;8.23;7.43;;;2.50;99.10;;;;;;5133938;27;20042;-41
2021/05/07 02:46:33;;;;;;;8.70;7.00;;;2.60;99.20;;;;;;5137442;27;20068;-40
2021/05/07 02:49:06;;;;;;;8.75;7.78;;;2.60;99.10;;;;;;5131939;27;20050;-41
2021/05/07 02:51:34;;;;;;;9.38;7.20;;;2.60;99.10;;;;;;5138036;27;20042;-40
2021/05/07 02:54:04;;;;;;;8.30;7.43;;;2.60;99.00;;;;;;5132909;27;20092;-40
2021/05/07 02:56:33;;;;;;;8.30;7.13;;;2.60;98.90;;;;;;5136598;27;20046;-39
2021/05/07 02:58:59;;;;;;;9.10;7.85;;;2.50;99.00;;;;;;5148832;27;20536;-40
2021/05/07 03:01:30;;;;;;;7.95;7.07;;;2.50;98.90;;;;;;5150175;27;20114;-41
2021/05/07 03:03:56;;;;;;;9.15;7.28;;;2.50;98.90;;;;;;5150785;27;20047;-41
2021/05/07 03:06:25;;;;;;;9.32;7.53;;;2.50;98.90;;;;;;5150749;27;20058;-41
2021/05/07 03:08:56;;;;;;;9.93;7.70;;;2.40;98.90;;;;;;5150406;27;20049;-42
2021/05/07 03:11:25;;;;;;;11.55;8.00;;;2.40;98.90;;;;;;5134345;27;20165;-41
2021/05/07 03:13:53;;;;;;;11.23;8.45;;;2.40;98.90;;;;;;5143922;27;20754;-41
2021/05/07 03:16:26;;;;;;;9.95;8.80;;;2.40;98.90;;;;;;5149824;27;20055;-41
2021/05/07 03:18:53;;;;;;;9.40;7.93;;;2.30;98.90;;;;;;5156712;27;20110;-42
2021/05/07 03:21:22;;;;;;;9.68;8.68;;;2.30;99.00;;;;;;5150223;27;20580;-41
2021/05/07 03:23:51;;;;;;;10.55;8.32;;;2.30;99.10;;;;;;5150095;27;20043;-40
2021/05/07 03:26:20;;;;;;;12.60;8.85;;;2.30;99.10;;;;;;5150489;27;20054;-41
2021/05/07 03:28:48;;;;;;;11.50;9.23;;;2.20;99.50;;;;;;5150400;27;20047;-42
2021/05/07 03:31:22;;;;;;;11.30;9.37;;;2.20;99.40;;;;;;5149312;27;20050;-41
2021/05/07 03:33:50;;;;;;;12.13;10.20;;;2.20;99.30;;;;;;5150285;27;20042;-41
2021/05/07 03:36:21;;;;;;;11.45;9.63;;;2.20;99.40;;;;;;5151638;27;20735;-40
2021/05/07 03:38:50;;;;;;;13.43;10.82;;;2.20;99.40;;;;;;5138502;27;20072;-41
2021/05/07 03:41:19;;;;;;;11.55;10.38;;;2.20;99.40;;;;;;5149094;27;20053;-41
2021/05/07 03:43:52;;;;;;;13.70;10.45;;;2.20;99.60;;;;;;5149792;27;20052;-42
2021/05/07 03:46:18;;;;;;;10.93;9.40;;;2.20;99.60;;;;;;5150243;27;20050;-40
2021/05/07 03:48:45;;;;;;;12.05;10.35;;;2.10;99.60;;;;;;5149358;27;20059;-41
2021/05/07 03:51:14;;;;;;;11.85;9.70;;;2.20;99.70;;;;;;5148971;27;20047;-40
2021/05/07 03:53:43;;;;;;;11.90;9.90;;;2.20;99.70;;;;;;5149200;27;20137;-42
2021/05/07 03:56:12;;;;;;;11.02;9.82;;;2.20;99.70;;;;;;5149910;27;20053;-43
2021/05/07 03:58:43;;;;;;;13.65;10.32;;;2.10;99.60;;;;;;5149807;27;20050;-42
2021/05/07 04:01:12;;;;;;;12.18;10.60;;;2.10;99.60;;;;;;5149215;27;20050;-40
2021/05/07 04:03:41;;;;;;;13.10;10.07;;;2.20;99.50;;;;;;5148914;27;20043;-40
2021/05/07 04:06:15;;;;;;;12.68;11.43;;;2.20;99.70;;;;;;5149417;27;20137;-42
2021/05/07 04:08:45;;;;;;;14.23;10.65;;;2.20;99.60;;;;;;5149454;27;20047;-40
2021/05/07 04:11:27;;;;;;;13.68;11.07;;;2.20;99.70;;;;;;5148964;27;20050;-41
2021/05/07 04:13:53;;;;;;;14.27;10.40;;;2.10;99.70;;;;;;5149072;27;20058;-40
2021/05/07 04:16:22;;;;;;;12.57;10.60;;;2.20;99.70;;;;;;5149020;27;20051;-41
2021/05/07 04:18:59;;;;;;;12.25;10.18;;;2.20;99.80;;;;;;5149243;27;20096;-40
2021/05/07 04:21:30;;;;;;;12.63;10.27;;;2.20;99.70;;;;;;5148584;27;20080;-41
2021/05/07 04:24:01;;;;;;;12.00;10.15;;;2.20;99.50;;;;;;5154811;27;20035;-41
2021/05/07 04:26:33;;;;;;;15.15;10.23;;;2.20;99.50;;;;;;5148830;27;20130;-40
2021/05/07 04:29:04;;;;;;;12.98;11.15;;;2.30;99.50;;;;;;5149498;27;20055;-41
2021/05/07 04:31:32;;;;;;;12.95;11.00;;;2.30;99.40;;;;;;5148316;27;20046;-41
2021/05/07 04:34:06;;;;;;;12.63;10.35;;;2.40;99.40;;;;;;5148992;27;20046;-41
2021/05/07 04:36:34;;;;;;;13.93;11.13;;;2.40;99.50;;;;;;5151121;27;20043;-41
2021/05/07 04:39:02;;;;;;;15.75;11.82;;;2.50;99.60;;;;;;5148795;27;20106;-43
2021/05/07 04:41:29;;;;;;;14.13;11.30;;;2.60;99.60;;;;;;5148925;27;20835;-40
2021/05/07 04:44:01;;;;;;;13.45;10.65;;;2.60;99.50;;;;;;5149284;27;20107;-40
2021/05/07 04:46:30;;;;;;;12.82;10.65;;;2.70;99.50;;;;;;5149353;27;20038;-42
2021/05/07 04:48:57;;;;;;;11.63;10.43;;;2.80;99.50;;;;;;5148696;27;20183;-41
2021/05/07 04:51:26;;;;;;;11.32;10.02;;;2.80;99.50;;;;;;5148873;27;20057;-43
2021/05/07 04:53:55;;;;;;;11.13;10.02;;;2.90;99.50;;;;;;5156443;27;20051;-40
2021/05/07 04:56:24;;;;;;;12.60;9.68;;;2.90;99.50;;;;;;5149170;27;20057;-40
2021/05/07 04:58:51;;;;;;;11.40;9.43;;;3.00;99.40;;;;;;5148523;27;20054;-40
2021/05/07 05:01:20;;;;;;;10.43;9.30;;;3.00;99.50;;;;;;5147947;27;20092;-40
2021/05/07 05:03:49;;;;;;;11.02;8.68;;;3.10;99.60;;;;;;5148436;27;20046;-41
2021/05/07 05:06:17;;;;;;;10.98;8.77;;;3.20;99.60;;;;;;5149341;27;20405;-40
2021/05/07 05:08:46;;;;;;;10.25;9.20;;;3.30;99.60;;;;;;5148408;27;20453;-40
2021/05/07 05:11:15;;;;;;;12.55;9.45;;;3.30;99.50;;;;;;5147561;27;20058;-40
2021/05/07 05:13:47;;;;;;;10.10;8.70;;;3.40;99.40;;;;;;5148688;27;20243;-40
2021/05/07 05:16:18;;;;;;;9.32;7.97;;;3.60;99.20;;;;;;5148602;27;20060;-40
2021/05/07 05:18:49;;;;;;;9.48;7.60;;;3.80;98.80;;;;;;5148602;27;20051;-41
2021/05/07 05:21:18;;;;;;;7.63;6.82;;;3.90;98.50;;;;;;5148503;27;20053;-41
2021/05/07 05:23:47;;;;;;;6.57;5.75;;;4.00;98.20;;;;;;5143407;27;20039;-40
2021/05/07 05:26:16;;;;;;;7.32;4.15;;;4.20;97.90;;;;;;5143554;27;20062;-41
2021/05/07 05:28:47;;;;;;;5.20;4.28;;;4.30;97.20;;;;;;5149152;27;20057;-38
2021/05/07 05:31:16;;;;;;;4.25;3.13;;;4.70;96.90;;;;;;5138985;27;20074;-41
2021/05/07 05:33:42;;;;;;;4.60;2.88;;;5.20;96.10;;;;;;5148975;27;20191;-41
2021/05/07 05:36:08;;;;;;;3.50;2.40;;;5.40;94.80;;;;;;5148510;27;20049;-42
2021/05/07 05:38:37;;;;;;;2.50;2.00;;;5.80;94.80;;;;;;5148128;27;20042;-41
2021/05/07 05:41:03;;;;;;;2.58;2.03;;;6.00;93.70;;;;;;5151418;27;20058;-41
2021/05/07 05:43:35;;;;;;;3.78;1.67;;;6.40;94.00;;;;;;5146484;27;20134;-42
2021/05/07 05:46:03;;;;;;;3.22;1.48;;;6.60;92.10;;;;;;5144178;27;20054;-43
2021/05/07 05:48:32;;;;;;;2.13;1.42;;;6.60;91.60;;;;;;5147104;27;20558;-44
2021/05/07 05:51:01;;;;;;;2.75;1.70;;;6.60;92.10;;;;;;5153090;27;20711;-43
2021/05/07 05:53:29;;;;;;;5.15;3.80;;;6.40;92.10;;;;;;5172173;27;20049;-44
2021/05/07 05:55:58;;;;;;;2.25;1.35;;;6.40;92.50;;;;;;5157350;27;20461;-41
2021/05/07 05:58:25;;;;;;;4.97;3.22;;;6.60;92.20;;;;;;5146771;27;20042;-43
2021/05/07 06:00:51;;;;;;;11.02;7.80;;;7.00;92.10;;;;;;5158507;27;20131;-44
2021/05/07 06:03:20;;;;;;;3.30;2.05;;;6.90;91.00;;;;;;5143214;27;20038;-41
2021/05/07 06:05:49;;;;;;;2.42;1.38;;;6.80;91.80;;;;;;5148141;27;20125;-43
2021/05/07 06:08:15;;;;;;;3.05;1.30;;;6.80;90.70;;;;;;5147908;27;20047;-42
2021/05/07 06:10:46;;;;;;;1.40;1.30;;;6.80;91.20;;;;;;5152955;27;20038;-43
2021/05/07 06:13:16;;;;;;;199.25;169.88;;;7.00;90.70;;;;;;5150072;27;20046;-43
2021/05/07 06:15:44;;;;;;;3.28;2.58;;;7.30;91.20;;;;;;5148046;27;20551;-41
2021/05/07 06:18:16;;;;;;;9.15;7.32;;;7.10;90.70;;;;;;5153225;27;20043;-41
2021/05/07 06:20:52;;;;;;;13.90;12.27;;;7.00;90.40;;;;;;5150413;27;20047;-41
2021/05/07 06:23:23;;;;;;;2.35;1.60;;;6.90;90.30;;;;;;5149708;27;20497;-43
2021/05/07 06:25:50;;;;;;;6.07;4.88;;;7.00;90.60;;;;;;5151837;27;20051;-43
2021/05/07 06:28:22;;;;;;;40.03;31.88;;;7.10;91.00;;;;;;5151156;27;20855;-42
2021/05/07 06:30:50;;;;;;;3.22;1.73;;;7.30;91.00;;;;;;5150323;27;20054;-39
2021/05/07 06:33:19;;;;;;;1.83;1.50;;;7.00;88.40;;;;;;5147806;27;20043;-41
2021/05/07 06:35:45;;;;;;;2.92;1.60;;;7.20;90.10;;;;;;5148175;27;20042;-41
2021/05/07 06:38:12;;;;;;;2.35;1.85;;;7.40;88.80;;;;;;5148013;27;20070;-41
2021/05/07 06:40:40;;;;;;;5.40;1.73;;;7.70;86.10;;;;;;5150151;27;20051;-40
2021/05/07 06:43:08;;;;;;;2.20;1.60;;;7.90;89.70;;;;;;5149005;27;20421;-41
2021/05/07 06:45:35;;;;;;;2.20;1.13;;;8.00;84.90;;;;;;5138558;27;20047;-43
2021/05/07 06:48:10;;;;;;;1.98;1.50;;;8.20;86.20;;;;;;5151083;27;20095;-43
2021/05/07 06:50:38;;;;;;;2.28;1.60;;;8.60;85.20;;;;;;5149248;27;20051;-41
2021/05/07 06:53:07;;;;;;;2.13;1.50;;;8.60;82.80;;;;;;5149655;27;20050;-40
2021/05/07 06:55:36;;;;;;;2.20;1.52;;;8.90;83.00;;;;;;5147260;27;20054;-42
2021/05/07 06:58:05;;;;;;;2.25;1.60;;;9.10;83.90;;;;;;5146651;27;20499;-42
2021/05/07 07:00:33;;;;;;;3.33;1.92;;;9.40;83.10;;;;;;5153714;27;20494;-42
2021/05/07 07:03:01;;;;;;;5.32;3.55;;;9.60;83.40;;;;;;5158192;27;20513;-43
2021/05/07 07:05:31;;;;;;;13.70;10.63;;;9.90;80.40;;;;;;5150308;27;20099;-46
2021/05/07 07:07:59;;;;;;;11.23;8.77;;;9.80;83.80;;;;;;5148926;27;20562;-43
2021/05/07 07:10:29;;;;;;;4.65;3.58;;;10.30;80.40;;;;;;5150263;27;20061;-43
2021/05/07 07:12:57;;;;;;;3.78;2.28;;;9.70;78.80;;;;;;5148503;27;20569;-46
2021/05/07 07:15:26;;;;;;;3.47;2.42;;;10.00;79.30;;;;;;5149001;27;20145;-45
2021/05/07 07:17:56;;;;;;;4.80;3.22;;;10.20;78.80;;;;;;5154430;27;20680;-43
2021/05/07 07:20:24;;;;;;;4.43;1.90;;;10.40;80.20;;;;;;5144039;27;20047;-41
2021/05/07 07:22:50;;;;;;;3.28;2.00;;;10.30;79.00;;;;;;5142853;27;20561;-43
2021/05/07 07:25:19;;;;;;;2.35;1.98;;;10.40;79.60;;;;;;5135776;27;20138;-42
2021/05/07 07:27:47;;;;;;;2.63;2.00;;;10.50;76.50;;;;;;5136962;27;20042;-46
2021/05/07 07:30:14;;;;;;;11.00;9.27;;;10.50;79.30;;;;;;5141108;27;20115;-44
2021/05/07 07:32:43;;;;;;;4.18;2.63;;;10.30;77.90;;;;;;5137916;27;20051;-44
2021/05/07 07:35:12;;;;;;;16.27;14.43;;;10.80;79.70;;;;;;5149309;27;20151;-45
2021/05/07 07:37:47;;;;;;;2.60;1.98;;;11.20;79.90;;;;;;5149299;27;20129;-43
2021/05/07 07:40:14;;;;;;;3.90;2.55;;;11.30;78.00;;;;;;5148582;27;20046;-43
2021/05/07 07:42:45;;;;;;;4.18;3.05;;;11.40;78.90;;;;;;5148270;27;20046;-45
2021/05/07 07:45:13;;;;;;;5.28;2.55;;;11.30;78.60;;;;;;5150478;27;20046;-48
2021/05/07 07:47:42;;;;;;;4.97;2.20;;;11.10;77.50;;;;;;5149362;27;20557;-45
2021/05/07 07:50:14;;;;;;;4.30;2.30;;;10.90;75.20;;;;;;5149249;27;20069;-45
2021/05/07 07:52:43;;;;;;;2.83;1.70;;;10.80;75.20;;;;;;5147816;27;20302;-43
2021/05/07 07:55:10;;;;;;;2.95;2.10;;;10.90;74.70;;;;;;5148006;27;20046;-42
2021/05/07 07:57:37;;;;;;;2.67;1.65;;;11.20;77.30;;;;;;5149381;27;20064;-45
2021/05/07 08:00:05;;;;;;;4.53;1.98;;;11.10;70.40;;;;;;5149117;27;20046;-40
2021/05/07 08:02:40;;;;;;;3.10;2.30;;;11.40;71.30;;;;;;5148918;27;20038;-41
2021/05/07 08:05:10;;;;;;;4.35;2.30;;;11.60;74.90;;;;;;5148628;27;20059;-41
2021/05/07 08:07:38;;;;;;;5.20;1.98;;;11.60;73.20;;;;;;5151639;27;20039;-41
2021/05/07 08:10:09;;;;;;;3.55;2.10;;;12.10;73.70;;;;;;5149322;27;20049;-41
2021/05/07 08:12:42;;;;;;;4.32;2.60;;;12.00;72.40;;;;;;5149235;27;20125;-40
2021/05/07 08:15:09;;;;;;;3.58;2.40;;;12.80;69.90;;;;;;5148143;27;20057;-40
2021/05/07 08:17:36;;;;;;;6.60;4.28;;;12.90;69.70;;;;;;5147743;27;20432;-40
2021/05/07 08:20:04;;;;;;;7.40;2.42;;;12.60;69.20;;;;;;5148431;27;20051;-41
2021/05/07 08:22:32;;;;;;;6.60;2.25;;;13.10;66.60;;;;;;5148599;27;20141;-42
2021/05/07 08:25:00;;;;;;;4.03;2.20;;;13.10;67.70;;;;;;5145331;27;20490;-40
2021/05/07 08:27:27;;;;;;;3.25;1.85;;;13.30;64.00;;;;;;5148911;27;20046;-41
2021/05/07 08:29:57;;;;;;;10.82;6.93;;;12.30;65.20;;;;;;5148550;27;20051;-42
2021/05/07 08:32:24;;;;;;;2.83;1.55;;;12.50;66.10;;;;;;5147115;27;20085;-40
2021/05/07 08:34:50;;;;;;;3.53;2.22;;;12.80;64.70;;;;;;5151044;27;20051;-45
2021/05/07 08:37:18;;;;;;;10.00;2.30;;;13.00;65.20;;;;;;5156145;27;20042;-43
2021/05/07 08:39:47;;;;;;;4.93;1.70;;;12.90;63.30;;;;;;5125416;27;20050;-43
2021/05/07 08:42:18;;;;;;;3.20;1.50;;;13.00;62.00;;;;;;5148886;27;20341;-44
2021/05/07 08:44:47;;;;;;;3.13;1.57;;;13.10;61.50;;;;;;5149045;27;20058;-45
2021/05/07 08:47:17;;;;;;;2.88;1.80;;;13.00;61.20;;;;;;5151080;27;20672;-44
2021/05/07 08:49:49;;;;;;;50.20;43.58;;;13.00;61.90;;;;;;5148208;27;20512;-44
2021/05/07 08:52:19;;;;;;;4.65;1.60;;;13.10;65.20;;;;;;5147814;27;20043;-45
2021/05/07 08:54:46;;;;;;;3.05;1.45;;;13.40;64.50;;;;;;5149207;27;20042;-45
2021/05/07 08:57:15;;;;;;;3.15;1.92;;;13.00;61.60;;;;;;5147828;27;20134;-42
2021/05/07 08:59:44;;;;;;;4.63;1.70;;;13.60;57.80;;;;;;5130636;27;20051;-44
2021/05/07 09:02:21;;;;;;;4.10;1.45;;;13.70;55.30;;;;;;5147018;27;20573;-42
2021/05/07 09:04:55;;;;;;;5.93;3.17;;;13.90;54.60;;;;;;5147832;27;20050;-42
2021/05/07 09:07:26;;;;;;;3.83;1.88;;;13.70;56.40;;;;;;5133877;27;20122;-44
2021/05/07 09:10:00;;;;;;;2.63;1.38;;;14.20;58.30;;;;;;5141420;27;20058;-42
2021/05/07 09:12:37;;;;;;;3.88;1.40;;;14.70;55.70;;;;;;5147963;27;20050;-42
2021/05/07 09:15:08;;;;;;;3.55;2.75;;;14.50;52.20;;;;;;5147649;27;20062;-42
2021/05/07 09:17:39;;;;;;;8.55;5.70;;;14.10;50.70;;;;;;5129219;27;20047;-44
2021/05/07 09:20:17;;;;;;;2.40;1.45;;;14.80;53.40;;;;;;5151643;27;20042;-42
2021/05/07 09:22:46;;;;;;;3.03;1.45;;;15.20;54.40;;;;;;5119635;28;20142;-44
2021/05/07 09:25:17;;;;;;;3.95;1.75;;;15.80;49.70;;;;;;5140755;27;20042;-44
2021/05/07 09:27:44;;;;;;;6.68;3.10;;;15.00;48.50;;;;;;5147774;27;20059;-43
2021/05/07 09:30:25;;;;;;;9.88;6.03;;;14.30;52.30;;;;;;5147779;27;20047;-41
2021/05/07 09:32:57;;;;;;;2.47;1.50;;;13.00;55.50;;;;;;5148518;27;20051;-44
2021/05/07 09:35:28;;;;;;;6.35;3.70;;;12.10;59.60;;;;;;5149871;27;20043;-46
2021/05/07 09:38:02;;;;;;;4.40;1.73;;;11.60;61.70;;;;;;5129648;27;20151;-45
2021/05/07 09:40:32;;;;;;;5.75;2.00;;;11.00;62.90;;;;;;5147195;27;20133;-43
2021/05/07 09:43:08;;;;;;;5.20;1.90;;;11.80;63.50;;;;;;5147886;27;20788;-42
2021/05/07 09:45:39;;;;;;;3.50;2.13;;;13.00;62.90;;;;;;5129075;27;20129;-45
2021/05/07 09:48:19;;;;;;;5.25;2.10;;;13.70;58.00;;;;;;5147701;27;20046;-42
2021/05/07 09:50:49;;;;;;;3.08;1.65;;;13.50;57.40;;;;;;5145866;27;20475;-44
2021/05/07 09:53:21;;;;;;;3.28;2.03;;;13.50;57.90;;;;;;5150873;27;20130;-44
2021/05/07 09:55:54;;;;;;;4.32;1.95;;;13.90;57.90;;;;;;5147739;27;20047;-46
2021/05/07 09:58:23;;;;;;;3.88;1.65;;;14.20;58.50;;;;;;5147322;27;20043;-45
2021/05/07 10:00:49;;;;;;;3.00;1.38;;;14.80;57.10;;;;;;5151918;27;20046;-43
2021/05/07 10:03:18;;;;;;;2.08;1.30;;;14.60;51.40;;;;;;5151670;27;20099;-46
2021/05/07 10:05:51;;;;;;;2.63;1.25;;;14.70;51.30;;;;;;5152138;27;20078;-49
2021/05/07 10:08:18;;;;;;;4.07;2.22;;;14.50;53.10;;;;;;5150556;27;20047;-47
2021/05/07 10:10:56;;;;;;;2.42;1.30;;;14.00;51.20;;;;;;5151932;27;20035;-44
2021/05/07 10:13:34;;;;;;;2.45;1.20;;;13.80;51.40;;;;;;5149914;27;20051;-49
2021/05/07 10:16:11;;;;;;;3.60;1.83;;;13.50;53.30;;;;;;5131638;27;20134;-47
2021/05/07 10:18:39;;;;;;;6.78;4.40;;;13.30;56.00;;;;;;5156524;27;20042;-44
2021/05/07 10:21:07;;;;;;;2.25;1.30;;;12.60;55.80;;;;;;5152308;27;20049;-45
2021/05/07 10:23:51;;;;;;;4.22;1.80;;;12.20;54.00;;;;;;5150328;27;20102;-44
2021/05/07 10:26:50;;;;;;;4.32;2.45;;;12.90;55.90;;;;;;5151411;27;20042;-43
2021/05/07 10:29:28;;;;;;;2.65;1.10;;;13.90;50.30;;;;;;5144471;27;20104;-44
2021/05/07 10:31:56;;;;;;;2.67;1.65;;;15.20;50.70;;;;;;5154161;27;20076;-45
2021/05/07 10:34:24;;;;;;;2.72;1.40;;;15.20;47.50;;;;;;5150517;27;20047;-44
2021/05/07 10:36:59;;;;;;;4.43;1.65;;;15.10;49.70;;;;;;5151159;27;20099;-43
2021/05/07 10:39:31;;;;;;;3.45;1.13;;;15.40;51.30;;;;;;5151660;27;20402;-45
2021/05/07 10:42:00;;;;;;;2.35;1.00;;;15.90;45.60;;;;;;5150541;27;20692;-44
2021/05/07 10:44:42;;;;;;;1.88;0.90;;;15.40;47.20;;;;;;5147720;27;20073;-46
2021/05/07 10:47:11;;;;;;;1.77;0.75;;;13.80;47.20;;;;;;5135847;27;20042;-45
2021/05/07 10:49:39;;;;;;;3.70;1.13;;;13.20;51.00;;;;;;5124034;27;20099;-44
2021/05/07 10:52:10;;;;;;;1.40;0.77;;;13.30;51.70;;;;;;5142352;27;20683;-45
2021/05/07 10:54:46;;;;;;;2.33;1.48;;;14.00;51.50;;;;;;5148196;27;20414;-44
2021/05/07 10:57:30;;;;;;;3.05;1.10;;;14.80;50.60;;;;;;5138377;27;20051;-45
2021/05/07 11:00:02;;;;;;;4.40;1.42;;;14.80;48.70;;;;;;5135096;27;20046;-45
2021/05/07 11:02:51;;;;;;;3.33;1.10;;;13.50;51.60;;;;;;5133877;27;20042;-45
2021/05/07 11:05:45;;;;;;;2.75;1.15;;;13.10;52.10;;;;;;5127092;27;20047;-46
2021/05/07 11:08:32;;;;;;;2.33;1.30;;;13.20;54.30;;;;;;5135311;27;20119;-44
2021/05/07 11:11:02;;;;;;;2.55;1.33;;;13.20;53.10;;;;;;5148124;27;20046;-44
2021/05/07 11:13:33;;;;;;;3.15;1.40;;;13.80;50.10;;;;;;5135924;27;20789;-48
2021/05/07 11:16:00;;;;;;;3.53;1.02;;;13.70;51.60;;;;;;5140753;27;20498;-44
2021/05/07 11:18:31;;;;;;;3.13;0.98;;;12.80;48.90;;;;;;5120843;27;20510;-44
2021/05/07 11:21:18;;;;;;;0.80;0.70;;;13.20;50.00;;;;;;5123763;27;20414;-45
2021/05/07 11:24:08;;;;;;;2.28;0.90;;;14.00;48.60;;;;;;5104553;27;20047;-46
2021/05/07 11:26:39;;;;;;;1.50;0.85;;;14.40;47.10;;;;;;5086995;28;20044;-49
2021/05/07 11:29:09;;;;;;;2.40;0.90;;;15.60;46.80;;;;;;5080949;28;20064;-52
2021/05/07 11:31:40;;;;;;;1.60;0.70;;;15.80;45.10;;;;;;5082864;28;20064;-47
2021/05/07 11:34:09;;;;;;;3.00;0.70;;;15.50;43.20;;;;;;5076990;28;20059;-50
2021/05/07 11:36:35;;;;;;;4.85;1.10;;;16.30;47.50;;;;;;5067492;28;20043;-50
2021/05/07 11:39:14;;;;;;;3.72;1.10;;;16.20;47.30;;;;;;5099687;28;20737;-49
2021/05/07 11:41:43;;;;;;;2.75;0.90;;;16.20;44.60;;;;;;5074266;28;20154;-45
2021/05/07 11:44:09;;;;;;;3.17;0.95;;;15.80;45.50;;;;;;5079435;28;20580;-46
2021/05/07 11:46:36;;;;;;;2.00;1.02;;;14.40;48.30;;;;;;5081950;28;20078;-47
2021/05/07 11:49:02;;;;;;;2.35;0.90;;;13.80;50.50;;;;;;5070754;28;20051;-49
2021/05/07 11:51:34;;;;;;;4.47;2.40;;;14.10;51.20;;;;;;5083240;28;20048;-49
2021/05/07 11:54:04;;;;;;;4.32;2.88;;;15.00;50.50;;;;;;5088819;28;20055;-45
2021/05/07 11:56:30;;;;;;;2.58;1.10;;;15.40;48.00;;;;;;5076272;28;20039;-48
2021/05/07 11:59:00;;;;;;;1.35;0.75;;;15.20;47.40;;;;;;5120288;27;20406;-44
2021/05/07 12:01:28;;;;;;;1.63;0.70;;;15.20;48.50;;;;;;5107122;27;20043;-45
2021/05/07 12:04:00;;;;;;;1.98;0.95;;;14.80;47.40;;;;;;5104428;27;20039;-47
2021/05/07 12:06:29;;;;;;;;;;;14.40;48.90;;;;;;5109069;27;20062;-49
2021/05/07 12:09:10;;;;;;;6.43;4.38;;;14.90;48.50;;;;;;5097239;27;19931;-45
2021/05/07 12:11:39;;;;;;;5.60;2.88;;;15.50;45.30;;;;;;5108180;27;20055;-45
2021/05/07 12:14:14;;;;;;;2.88;1.35;;;16.10;45.60;;;;;;5107274;28;20052;-48
2021/05/07 12:16:43;;;;;;;3.47;0.98;;;16.10;41.60;;;;;;5121105;27;20038;-46
2021/05/07 12:19:20;;;;;;;1.83;0.82;;;15.70;41.80;;;;;;5125443;27;20072;-49
2021/05/07 12:21:49;;;;;;;4.38;3.15;;;15.20;42.20;;;;;;5144956;27;20057;-48
2021/05/07 12:24:27;;;;;;;2.90;1.67;;;15.80;45.30;;;;;;5134390;27;20111;-43
2021/05/07 12:26:53;;;;;;;2.15;0.95;;;16.10;42.90;;;;;;5132676;27;20074;-48
2021/05/07 12:29:19;;;;;;;3.55;1.00;;;15.40;43.40;;;;;;5138076;27;20399;-45
2021/05/07 12:31:48;;;;;;;3.63;1.10;;;15.40;45.90;;;;;;5113384;27;20047;-48
2021/05/07 12:34:18;;;;;;;1.45;0.75;;;15.50;43.00;;;;;;5134799;27;20541;-45
2021/05/07 12:37:00;;;;;;;2.63;1.02;;;16.20;44.20;;;;;;5144342;27;20834;-44
2021/05/07 12:39:26;;;;;;;;;;;16.00;42.90;;;;;;5132125;27;20050;-44
2021/05/07 12:41:57;;;;;;;2.72;0.93;;;15.40;41.90;;;;;;5145901;27;19973;-43
2021/05/07 12:44:23;;;;;;;3.05;1.02;;;14.90;43.30;;;;;;5145294;27;20680;-47
2021/05/07 12:46:49;;;;;;;2.30;0.90;;;14.60;45.70;;;;;;5135291;27;20054;-45
2021/05/07 12:49:18;;;;;;;2.58;1.30;;;14.30;47.30;;;;;;5129114;27;20059;-46
2021/05/07 12:51:50;;;;;;;3.63;1.30;;;13.50;48.40;;;;;;5142637;27;20043;-45
2021/05/07 12:54:19;;;;;;;;;;;13.20;49.50;;;;;;5144919;27;20057;-44
2021/05/07 12:56:48;;;;;;;7.13;1.30;;;12.90;50.60;;;;;;5148441;27;19922;-50
2021/05/07 12:59:22;;;;;;;4.15;1.13;;;14.30;50.00;;;;;;5132732;27;20046;-47
2021/05/07 13:01:50;;;;;;;2.03;0.95;;;14.70;48.60;;;;;;5143556;27;20062;-46
2021/05/07 13:04:19;;;;;;;3.58;1.25;;;14.40;47.50;;;;;;5145471;27;20065;-50
2021/05/07 13:06:46;;;;;;;3.33;1.20;;;13.40;47.30;;;;;;5118576;27;20407;-48